METAR stanice u blizini

 

LYBE - Beograd / Surčin, Srbija
Ažurirano: 26/09/2020 05:00
Slaba kiša, Delimično oblačno
Slaba kiša, Delimično oblačno
 Pravac vetra J
Vetar: J 24 km/h
Temperatura: 19°C
Tačka rose: 16°C
Vlažnost: 83%
Pritisak: 993 hPa
Pregled: Light Rain
Oblaci: Partly Cloudy
Vidljivost: 10 km
Cloud details: Partly Cloudy 1219 m
2020/09/26 03:00 LYBE 260300Z 18013KT 9999 -RA SCT040 19/16 Q0993 NOSIG
LYBT - Beograd / Batajnica, Srbija
Ažurirano: 26/09/2020 05:00
Slaba kiša, Delimično oblačno
Slaba kiša, Delimično oblačno
 Pravac vetra JJI
Vetar: JJI 22 km/h
Temperatura: 18°C
Tačka rose: 16°C
Vlažnost: 88%
Pritisak: 993 hPa
Pregled: Light Rain
Oblaci: Partly Cloudy
Vidljivost: 10 km
Cloud details: Few Clouds 518 m
Partly Cloudy 823 m
2020/09/26 03:00 LYBT 260300Z 16012KT 140V210 9999 -RA FEW017 SCT027 18/16 Q0993 NOSIG
LYVR - Vršac, Srbija
Ažurirano: 26/09/2020 05:00
Slaba kiša, Showers, Oblačno
Slaba kiša, Showers, Oblačno
 Pravac vetra JI
Vetar: JI 37 km/h, Maks.: 83 km/h
Temperatura: 19°C
Tačka rose: 16°C
Vlažnost: 83%
Pritisak: 993 hPa
Pregled: Slaba kiša, Showers
Oblaci: Oblačno
Vidljivost: 10 km
Cloud details: Few Clouds 1006 m
Oblačno 2774 m
2020/09/26 03:00 LYVR 260300Z AUTO 13020G45KT 9999 -SHRA FEW033/// OVC091/// 19/16 Q0993
 
LYKV - Lađevci, Srbija
Ažurirano: 26/09/2020 05:00
Partly Cloudy
Partly Cloudy
 Pravac vetra JJI
Vetar: JJI 9 km/h
Temperatura: 18°C
Tačka rose: 18°C
Vlažnost: 100%
Pritisak: 994 hPa
Oblaci: Partly Cloudy
Vidljivost: 10 km
Cloud details: Partly Cloudy 1372 m
2020/09/26 03:00 LYKV 260300Z 16005KT 130V230 9999 SCT045 18/18 Q0994 NOSIG
LYNI - Niš, Srbija
Ažurirano: 26/09/2020 05:00
Few Clouds
Few Clouds
 Pravac vetra JI
Vetar: JI 7 km/h
Temperatura: 19°C
Tačka rose: 14°C
Vlažnost: 73%
Pritisak: 997 hPa
Oblaci: Few Clouds
Vidljivost: 10 km
Cloud details: Few Clouds 1219 m
2020/09/26 03:00 LYNI 260300Z 13004KT 060V220 9999 FEW040 19/14 Q0997 NOSIG
BKPR - Priština, Srbija
Ažurirano: 26/09/2020 05:00
Slaba kiša, Showers, Pretežno oblačno
Slaba kiša, Showers, Pretežno oblačno
 Pravac vetra J
Vetar: J 22 km/h
Temperatura: 16°C
Tačka rose: 13°C
Vlažnost: 83%
Pritisak: 998 hPa
Pregled: Slaba kiša, Showers
Oblaci: Mostly Cloudy
Vidljivost: 10 km
Cloud details: Few Clouds 914 m
Partly Cloudy 1067 m
Mostly Cloudy 2134 m
2020/09/26 03:00 BKPR 260300Z 18012KT 9999 -SHRA FEW030CB SCT035 BKN070 16/13 Q0998 NOSIG
 
LHPP - Pecs / Pogany, Hungary
Ažurirano: 25/09/2020 19:45
NOT Current
Light thunderstorm, Padavine, Pretežno oblačno
Light thunderstorm, Padavine, Pretežno oblačno
 Pravac vetra JI
Vetar: JI 15 km/h
Temperatura: 17°C
Tačka rose: 16°C
Vlažnost: 94%
Pritisak: 996 hPa
Pregled: Light thunderstorm, Padavine
Oblaci: Mostly Cloudy
Vidljivost: 7 km
Cloud details: Mostly Cloudy 488 m
2020/09/25 17:45 LHPP 251745Z 13008KT 7000 -TSRA BKN016CB 17/16 Q0996 RESHRA
LHUD - Szeged, Hungary
Ažurirano: 04/07/2019 01:45
NOT Current
Vedro
Vedro
 Pravac vetra S
Vetar: S 7 km/h
Temperatura: 18°C
Tačka rose: 13°C
Vlažnost: 73%
Pritisak: 1019 hPa
Pregled: Vedro
Vidljivost: greater than 10 km
2019/07/03 23:45 LHUD 032345Z 35004KT CAVOK 18/13 Q1019
LRTR - Timisoara, Romania
Ažurirano: 26/09/2020 05:00
Slaba kiša, Showers, Few clouds
Slaba kiša, Showers, Few clouds
 Pravac vetra JJI
Vetar: JJI 30 km/h
Temperatura: 18°C
Tačka rose: 17°C
Vlažnost: 94%
Pritisak: 993 hPa
Pregled: Slaba kiša, Showers
Oblaci: Few Clouds
Vidljivost: 10 km
Cloud details: Few Clouds 1524 m
2020/09/26 03:00 LRTR 260300Z 15016KT 9999 -SHRA FEW050CB 18/17 Q0993 RESHRA R11/29//95 NOSIG
 
LRCV - Craiova, Romania
Ažurirano: 26/09/2020 05:00
Vedro
Vedro
 Pravac vetra I
Vetar: I 19 km/h
Temperatura: 19°C
Tačka rose: 13°C
Vlažnost: 68%
Pritisak: 997 hPa
Pregled: Vedro
Vidljivost: greater than 10 km
2020/09/26 03:00 LRCV 260300Z 09010KT CAVOK 19/13 Q0997
LBSF - Sofia, Bulgaria
Ažurirano: 26/09/2020 05:00
Mostly Cloudy
Mostly Cloudy
 Pravac vetra J
Vetar: J 13 km/h
Temperatura: 23°C
Tačka rose: 11°C
Vlažnost: 47%
Pritisak: 1000 hPa
Oblaci: Mostly Cloudy
Vidljivost: 10 km
Cloud details: Mostly Cloudy 2652 m
2020/09/26 03:00 LBSF 260300Z 19007KT 130V210 9999 BKN087 23/11 Q1000 NOSIG
LWSK - Skoplje, Makedonija
Ažurirano: 26/09/2020 05:00
Slaba kiša, Oblačno
Slaba kiša, Oblačno
 Pravac vetra JI
Vetar: JI 11 km/h
Temperatura: 18°C
Tačka rose: 14°C
Vlažnost: 78%
Pritisak: 998 hPa
Pregled: Light Rain
Oblaci: Oblačno
Vidljivost: 10 km
Cloud details: Partly Cloudy 1311 m
Oblačno 2835 m
2020/09/26 03:00 LWSK 260300Z 14006KT 100V180 9999 -RA SCT043 OVC093 18/14 Q0998 RERA TEMPO 16015KT
 
LYPG - Podgorica, Crna Gora
Ažurirano: 26/09/2020 05:00
Mostly Cloudy
Mostly Cloudy
 Pravac vetra JZ
Vetar: JZ 13 km/h
Temperatura: 20°C
Tačka rose: 10°C
Vlažnost: 53%
Pritisak: 997 hPa
Oblaci: Mostly Cloudy
Vidljivost: 10 km
Cloud details: Partly Cloudy 914 m
Mostly Cloudy 3048 m
2020/09/26 03:00 LYPG 260300Z 23007KT 160V290 9999 SCT030 BKN100 20/10 Q0997 NOSIG
LQSA - Sarajevo, Bosna i Hercegovina
Ažurirano: 26/09/2020 05:00
Mostly Cloudy
Mostly Cloudy
 Pravac vetra varies
Vetar: varies 4 km/h
Temperatura: 12°C
Tačka rose: 10°C
Vlažnost: 88%
Pritisak: 995 hPa
Oblaci: Mostly Cloudy
Vidljivost: 10 km
Cloud details: Mostly Cloudy 1219 m
2020/09/26 03:00 LQSA 260300Z VRB02KT 9999 BKN040 12/10 Q0995
LDOS - Osijek, Hrvatksa
Ažurirano: 26/09/2020 05:00
Partly Cloudy
Partly Cloudy
 Pravac vetra JZ
Vetar: JZ 7 km/h
Temperatura: 14°C
Tačka rose: 13°C
Vlažnost: 94%
Pritisak: 993 hPa
Oblaci: Partly Cloudy
Vidljivost: 10 km
Cloud details: Partly Cloudy 1219 m
2020/09/26 03:00 LDOS 260300Z 23004KT 200V270 9999 SCT040 14/13 Q0993